Time;durP1;ratioP1;P1;durP2;ratioP2;P2;SDS_P1;SDS_P2;PMS_P1;PMS_P2;Temp;Humidity;BMP_temperature;BMP_pressure;BME280_temperature;BME280_humidity;BME280_pressure;Samples;Min_cycle;Max_cycle;Signal;HPM_P1;HPM_P2
2023/09/01 00:01:20;;;;;;;1.55;0.80;;;17.40;99.90;;;;;;5082752;28;20191;-78
2023/09/01 00:03:51;;;;;;;3.45;0.93;;;17.30;99.90;;;;;;5079074;28;20196;-77
2023/09/01 00:06:22;;;;;;;2.38;0.80;;;17.40;99.90;;;;;;5088083;28;20207;-77
2023/09/01 00:08:53;;;;;;;1.98;0.70;;;17.50;99.90;;;;;;5088466;28;20188;-77
2023/09/01 00:11:24;;;;;;;2.65;0.90;;;17.40;99.90;;;;;;5081984;28;20661;-80
2023/09/01 00:13:57;;;;;;;3.67;0.90;;;17.30;99.90;;;;;;5053149;28;20196;-82
2023/09/01 00:16:27;;;;;;;4.85;1.75;;;17.10;99.90;;;;;;5058147;28;20218;-87
2023/09/01 00:18:58;;;;;;;3.15;1.10;;;17.00;99.90;;;;;;5079232;28;20185;-87
2023/09/01 00:21:29;;;;;;;1.98;0.80;;;17.00;99.90;;;;;;5069522;28;20193;-86
2023/09/01 00:24:02;;;;;;;1.95;0.52;;;16.90;99.90;;;;;;5054170;28;20236;-86
2023/09/01 00:26:33;;;;;;;1.63;0.70;;;16.90;99.90;;;;;;5072887;28;20196;-90
2023/09/01 00:29:05;;;;;;;2.35;0.50;;;17.10;99.90;;;;;;5073081;28;20189;-84
2023/09/01 00:31:37;;;;;;;1.75;0.60;;;17.40;99.90;;;;;;5064155;28;20276;-87
2023/09/01 00:34:08;;;;;;;1.77;0.50;;;17.50;99.90;;;;;;5072730;28;20637;-79
2023/09/01 00:36:39;;;;;;;1.30;0.57;;;17.70;99.90;;;;;;5073006;28;20223;-80
2023/09/01 00:39:10;;;;;;;1.92;0.50;;;17.80;99.90;;;;;;5066091;28;20646;-83
2023/09/01 00:41:41;;;;;;;1.48;0.50;;;17.90;99.90;;;;;;5065574;28;20198;-84
2023/09/01 00:44:14;;;;;;;1.42;0.47;;;18.00;99.90;;;;;;5063849;28;20567;-81
2023/09/01 00:46:46;;;;;;;0.77;0.47;;;18.20;99.90;;;;;;5093134;28;20200;-86
2023/09/01 00:49:18;;;;;;;2.67;0.70;;;18.30;99.90;;;;;;5067821;28;20189;-83
2023/09/01 00:51:50;;;;;;;2.83;0.68;;;18.40;99.90;;;;;;5052995;28;20189;-83
2023/09/01 00:54:21;;;;;;;1.85;0.50;;;18.50;99.90;;;;;;5052916;28;20204;-84
2023/09/01 00:56:55;;;;;;;2.17;0.40;;;18.60;99.90;;;;;;5057252;28;20317;-82
2023/09/01 00:59:28;;;;;;;1.35;0.47;;;18.70;99.90;;;;;;5057045;28;20190;-84
2023/09/01 01:01:59;;;;;;;1.73;0.55;;;18.60;99.90;;;;;;5071477;28;20660;-85
2023/09/01 01:04:31;;;;;;;1.15;0.50;;;18.60;99.90;;;;;;5075002;28;20193;-87
2023/09/01 01:07:13;;;;;;;3.22;0.52;;;18.50;99.90;;;;;;5064604;28;20192;-84
2023/09/01 01:09:52;;;;;;;1.25;0.45;;;18.30;99.90;;;;;;5056795;28;20186;-76
2023/09/01 01:12:31;;;;;;;1.55;0.60;;;17.90;99.90;;;;;;5064587;28;20243;-77
2023/09/01 01:15:09;;;;;;;2.78;0.63;;;17.60;99.90;;;;;;5076588;28;20212;-81
2023/09/01 01:17:44;;;;;;;1.75;0.55;;;17.50;99.90;;;;;;5088498;28;20530;-80
2023/09/01 01:20:30;;;;;;;1.92;0.70;;;17.40;99.90;;;;;;5096877;28;20572;-77
2023/09/01 01:23:12;;;;;;;1.42;0.60;;;17.70;99.90;;;;;;5096790;28;20185;-78
2023/09/01 01:25:48;;;;;;;1.10;0.70;;;18.10;99.90;;;;;;5081955;28;20230;-78
2023/09/01 01:28:19;;;;;;;0.93;0.52;;;18.30;99.90;;;;;;5076362;28;20636;-79
2023/09/01 01:30:51;;;;;;;2.10;0.50;;;18.30;99.90;;;;;;5075348;28;20199;-79
2023/09/01 01:33:50;;;;;;;3.05;0.50;;;18.00;99.90;;;;;;5084833;28;20217;-81
2023/09/01 01:36:33;;;;;;;2.38;0.60;;;17.90;99.90;;;;;;5079487;28;20235;-83
2023/09/01 01:39:09;;;;;;;1.45;0.50;;;18.20;99.90;;;;;;5078940;28;20253;-79
2023/09/01 01:41:48;;;;;;;1.27;0.50;;;18.30;99.90;;;;;;5075940;28;20192;-80
2023/09/01 01:44:23;;;;;;;2.75;0.52;;;18.30;99.90;;;;;;5076086;28;20192;-81
2023/09/01 01:46:55;;;;;;;0.98;0.50;;;18.30;99.90;;;;;;5075787;28;20297;-78
2023/09/01 01:49:25;;;;;;;2.33;0.60;;;18.30;99.90;;;;;;5075825;28;20645;-76
2023/09/01 01:51:56;;;;;;;1.33;0.57;;;18.30;99.90;;;;;;5075916;28;20197;-78
2023/09/01 01:54:29;;;;;;;1.60;0.60;;;18.50;99.90;;;;;;5076298;28;20589;-81
2023/09/01 01:57:00;;;;;;;3.28;0.55;;;18.70;99.90;;;;;;5075587;28;20236;-80
2023/09/01 01:59:31;;;;;;;1.50;0.68;;;18.70;99.90;;;;;;5078787;28;20260;-78
2023/09/01 02:02:05;;;;;;;0.93;0.60;;;18.50;99.90;;;;;;5083666;28;20189;-76
2023/09/01 02:04:36;;;;;;;3.22;0.70;;;18.40;99.90;;;;;;5075566;28;20204;-78
2023/09/01 02:07:07;;;;;;;1.23;0.52;;;18.40;99.90;;;;;;5077903;28;20196;-84
2023/09/01 02:09:40;;;;;;;1.17;0.50;;;18.10;99.90;;;;;;5075506;28;20563;-86
2023/09/01 02:12:11;;;;;;;2.75;0.68;;;18.10;99.90;;;;;;5080242;28;20243;-79
2023/09/01 02:14:41;;;;;;;2.72;0.80;;;18.00;99.90;;;;;;5086808;28;20196;-82
2023/09/01 02:17:12;;;;;;;1.00;0.60;;;17.80;99.90;;;;;;5078526;28;20212;-82
2023/09/01 02:19:43;;;;;;;3.33;0.70;;;17.60;99.90;;;;;;5084108;28;20318;-81
2023/09/01 02:22:14;;;;;;;3.40;0.70;;;17.60;99.90;;;;;;5078077;28;20629;-83
2023/09/01 02:24:47;;;;;;;1.80;0.60;;;17.80;99.90;;;;;;5093339;28;20196;-83
2023/09/01 02:27:17;;;;;;;2.38;0.70;;;18.00;99.90;;;;;;5094021;28;20742;-81
2023/09/01 02:29:48;;;;;;;2.17;0.70;;;18.10;99.90;;;;;;5094878;28;20184;-82
2023/09/01 02:32:19;;;;;;;1.73;0.70;;;18.30;99.90;;;;;;5094707;28;20199;-82
2023/09/01 02:34:49;;;;;;;1.88;0.77;;;18.50;99.90;;;;;;5095203;28;20192;-82
2023/09/01 02:37:20;;;;;;;2.35;0.70;;;18.60;99.90;;;;;;5095183;28;20219;-85
2023/09/01 02:39:53;;;;;;;2.35;0.70;;;18.60;99.90;;;;;;5095270;28;20195;-85
2023/09/01 02:42:24;;;;;;;6.30;1.83;;;18.40;99.90;;;;;;5095111;28;20185;-82
2023/09/01 02:44:54;;;;;;;4.50;1.10;;;18.40;99.90;;;;;;5094941;28;20191;-81
2023/09/01 02:47:25;;;;;;;1.02;0.70;;;18.30;99.90;;;;;;5095339;28;20692;-86
2023/09/01 02:49:56;;;;;;;2.70;0.70;;;18.30;99.90;;;;;;5095230;28;20192;-81
2023/09/01 02:52:27;;;;;;;4.53;0.73;;;18.30;99.90;;;;;;5094137;28;20188;-81
2023/09/01 02:54:59;;;;;;;4.88;1.00;;;18.30;99.90;;;;;;5090336;28;20593;-82
2023/09/01 02:57:30;;;;;;;4.45;0.90;;;18.30;99.90;;;;;;5094934;28;20293;-77
2023/09/01 03:00:01;;;;;;;2.35;0.80;;;18.20;99.90;;;;;;5094787;28;20523;-79
2023/09/01 03:02:30;;;;;;;1.95;0.73;;;18.30;99.90;;;;;;5094714;28;20189;-77
2023/09/01 03:05:01;;;;;;;2.65;0.80;;;18.30;99.90;;;;;;5094802;28;20200;-79
2023/09/01 03:07:35;;;;;;;3.03;0.80;;;18.30;99.90;;;;;;5094725;28;20240;-77
2023/09/01 03:10:08;;;;;;;2.42;0.80;;;18.30;99.90;;;;;;5093307;28;20601;-79
2023/09/01 03:12:40;;;;;;;3.00;0.90;;;18.30;99.90;;;;;;5076327;28;20305;-80
2023/09/01 03:15:12;;;;;;;2.95;0.90;;;18.40;99.90;;;;;;5074443;28;20189;-80
2023/09/01 03:17:43;;;;;;;2.90;0.85;;;18.40;99.90;;;;;;5074128;28;20558;-75
2023/09/01 03:20:14;;;;;;;3.00;0.80;;;18.40;99.90;;;;;;5074248;28;20200;-75
2023/09/01 03:22:45;;;;;;;2.55;1.02;;;18.30;99.90;;;;;;5074380;28;20228;-75
2023/09/01 03:25:18;;;;;;;3.00;0.75;;;18.20;99.90;;;;;;5074139;28;20204;-76
2023/09/01 03:27:48;;;;;;;3.15;0.73;;;18.20;99.90;;;;;;5073888;28;20199;-76
2023/09/01 03:30:19;;;;;;;2.53;0.70;;;18.20;99.90;;;;;;5073981;28;20196;-76
2023/09/01 03:32:50;;;;;;;5.10;0.90;;;18.30;99.90;;;;;;5073995;28;20189;-74
2023/09/01 03:35:21;;;;;;;2.35;0.73;;;18.30;99.90;;;;;;5073922;28;20193;-76
2023/09/01 03:37:51;;;;;;;4.13;0.70;;;18.30;99.90;;;;;;5073835;28;20696;-74
2023/09/01 03:40:24;;;;;;;3.17;0.82;;;18.10;99.90;;;;;;5073852;28;20193;-74
2023/09/01 03:42:55;;;;;;;2.60;0.70;;;18.10;99.90;;;;;;5073533;28;20640;-74
2023/09/01 03:45:26;;;;;;;3.22;0.70;;;18.00;99.90;;;;;;5073722;28;20646;-74
2023/09/01 03:47:57;;;;;;;3.95;1.00;;;18.00;99.90;;;;;;5074034;28;20276;-74
2023/09/01 03:50:28;;;;;;;6.55;1.00;;;18.00;99.90;;;;;;5073571;28;20193;-77
2023/09/01 03:52:59;;;;;;;5.38;1.05;;;17.90;99.90;;;;;;5073624;28;20189;-75
2023/09/01 03:55:32;;;;;;;4.55;0.90;;;17.90;99.90;;;;;;5073439;28;20224;-74
2023/09/01 03:58:04;;;;;;;6.80;1.13;;;17.90;99.90;;;;;;5073330;28;20221;-73
2023/09/01 04:00:36;;;;;;;8.23;1.42;;;18.10;99.90;;;;;;5073490;28;20189;-76
2023/09/01 04:03:07;;;;;;;4.53;1.25;;;17.80;99.90;;;;;;5073565;28;20610;-77
2023/09/01 04:05:38;;;;;;;5.28;1.13;;;17.80;99.90;;;;;;5073467;28;20189;-75
2023/09/01 04:08:09;;;;;;;6.28;1.20;;;17.70;99.90;;;;;;5073407;28;20193;-78
2023/09/01 04:10:42;;;;;;;3.55;0.80;;;17.70;99.90;;;;;;5073091;28;20208;-80
2023/09/01 04:13:13;;;;;;;4.85;1.10;;;17.80;99.90;;;;;;5073180;28;20235;-78
2023/09/01 04:15:45;;;;;;;4.57;0.88;;;17.80;99.90;;;;;;5073374;28;20641;-77
2023/09/01 04:18:16;;;;;;;6.85;1.25;;;17.80;99.90;;;;;;5073267;28;20228;-82
2023/09/01 04:20:51;;;;;;;7.75;1.15;;;17.90;99.90;;;;;;5073229;28;20193;-79
2023/09/01 04:23:21;;;;;;;7.97;1.23;;;17.70;99.90;;;;;;5073370;28;20694;-81
2023/09/01 04:25:54;;;;;;;7.55;1.30;;;17.80;99.90;;;;;;5073030;28;20271;-77
2023/09/01 04:28:25;;;;;;;5.10;1.23;;;17.90;99.90;;;;;;5073267;28;20236;-79
2023/09/01 04:30:59;;;;;;;4.72;0.80;;;17.90;99.90;;;;;;5072534;28;20191;-81
2023/09/01 04:33:30;;;;;;;8.13;1.08;;;17.90;99.90;;;;;;5073153;28;20279;-81
2023/09/01 04:36:03;;;;;;;5.40;1.10;;;17.70;99.90;;;;;;5073137;28;20195;-75
2023/09/01 04:38:34;;;;;;;6.68;0.93;;;17.60;99.90;;;;;;5073188;28;20597;-79
2023/09/01 04:41:06;;;;;;;5.18;1.13;;;17.40;99.90;;;;;;5072864;28;20191;-75
2023/09/01 04:43:37;;;;;;;7.63;1.50;;;17.30;99.90;;;;;;5073027;28;20698;-81
2023/09/01 04:46:08;;;;;;;9.65;1.33;;;17.40;99.90;;;;;;5072957;28;20736;-77
2023/09/01 04:48:39;;;;;;;9.07;1.35;;;17.40;99.90;;;;;;5072954;28;20189;-76
2023/09/01 04:51:10;;;;;;;6.68;1.25;;;17.30;99.90;;;;;;5072977;28;20197;-79
2023/09/01 04:53:42;;;;;;;5.05;1.00;;;17.30;99.90;;;;;;5087423;28;20200;-78
2023/09/01 04:56:17;;;;;;;4.80;1.35;;;17.30;99.90;;;;;;5092683;28;20224;-79
2023/09/01 04:58:48;;;;;;;5.00;1.10;;;17.20;99.90;;;;;;5093181;28;20191;-77
2023/09/01 05:01:19;;;;;;;7.22;1.17;;;17.10;99.90;;;;;;5093000;28;20249;-81
2023/09/01 05:03:49;;;;;;;6.35;1.20;;;17.10;99.90;;;;;;5093061;28;20748;-79
2023/09/01 05:06:20;;;;;;;3.92;1.00;;;17.10;99.90;;;;;;5093111;28;20189;-77
2023/09/01 05:08:51;;;;;;;5.97;0.95;;;17.10;99.90;;;;;;5092787;28;20199;-78
2023/09/01 05:11:24;;;;;;;4.28;1.05;;;17.10;99.90;;;;;;5088032;28;20225;-77
2023/09/01 05:13:55;;;;;;;3.88;0.93;;;17.20;99.90;;;;;;5061357;28;20196;-78
2023/09/01 05:16:26;;;;;;;5.45;1.10;;;17.10;99.90;;;;;;5072761;28;20212;-76
2023/09/01 05:18:56;;;;;;;6.65;1.30;;;17.10;99.90;;;;;;5072700;28;20197;-81
2023/09/01 05:21:27;;;;;;;7.80;1.00;;;17.10;99.90;;;;;;5072533;28;20204;-79
2023/09/01 05:23:58;;;;;;;5.57;1.10;;;17.10;99.90;;;;;;5072516;28;20275;-76
2023/09/01 05:26:31;;;;;;;5.40;1.63;;;17.10;99.90;;;;;;5072639;28;20225;-81
2023/09/01 05:29:02;;;;;;;7.72;1.10;;;17.10;99.90;;;;;;5072702;28;20267;-74
2023/09/01 05:31:32;;;;;;;7.20;1.50;;;16.90;99.90;;;;;;5072549;28;20195;-74
2023/09/01 05:34:03;;;;;;;8.73;1.52;;;16.80;99.90;;;;;;5072637;28;20629;-75
2023/09/01 05:36:36;;;;;;;9.77;1.70;;;16.80;99.90;;;;;;5072385;28;20197;-75
2023/09/01 05:39:07;;;;;;;9.55;1.40;;;16.90;99.90;;;;;;5072303;28;20390;-76
2023/09/01 05:41:40;;;;;;;9.93;1.45;;;16.80;99.90;;;;;;5073519;28;20311;-80
2023/09/01 05:44:10;;;;;;;6.38;1.15;;;16.70;99.90;;;;;;5076268;28;20263;-76
2023/09/01 05:46:41;;;;;;;10.10;1.50;;;16.60;99.90;;;;;;5076295;28;20244;-75
2023/09/01 05:49:12;;;;;;;6.38;1.30;;;16.50;99.90;;;;;;5075967;28;20216;-78
2023/09/01 05:51:43;;;;;;;13.77;1.58;;;16.60;99.90;;;;;;5075863;28;20606;-79
2023/09/01 05:54:14;;;;;;;8.40;1.30;;;16.50;99.90;;;;;;5075615;28;20304;-75
2023/09/01 05:56:47;;;;;;;9.35;1.35;;;16.50;99.90;;;;;;5075831;28;20276;-77
2023/09/01 05:59:17;;;;;;;8.20;1.30;;;16.50;99.90;;;;;;5075916;28;20204;-75
2023/09/01 06:01:50;;;;;;;4.10;0.95;;;16.60;99.90;;;;;;5075781;28;20189;-79
2023/09/01 06:04:21;;;;;;;9.52;1.10;;;16.50;99.90;;;;;;5068518;28;20205;-75
2023/09/01 06:06:52;;;;;;;7.68;1.35;;;16.50;99.90;;;;;;5055573;28;20204;-76
2023/09/01 06:09:22;;;;;;;6.93;1.02;;;16.50;99.90;;;;;;5055624;28;20190;-76
2023/09/01 06:11:55;;;;;;;5.55;1.15;;;16.50;99.90;;;;;;5059341;28;20236;-77
2023/09/01 06:14:26;;;;;;;6.88;1.13;;;16.50;99.90;;;;;;5075605;28;20195;-79
2023/09/01 06:16:56;;;;;;;3.53;0.80;;;16.40;99.90;;;;;;5075469;28;20193;-78
2023/09/01 06:19:27;;;;;;;5.05;1.13;;;16.40;99.90;;;;;;5075426;28;20541;-76
2023/09/01 06:21:58;;;;;;;4.90;0.98;;;16.40;99.90;;;;;;5075221;28;20551;-76
2023/09/01 06:24:29;;;;;;;4.70;0.90;;;16.40;99.90;;;;;;5075451;28;20654;-76
2023/09/01 06:27:02;;;;;;;7.85;0.93;;;16.40;99.90;;;;;;5075416;28;20315;-76
2023/09/01 06:29:33;;;;;;;5.82;1.42;;;16.40;99.90;;;;;;5075407;28;20193;-77
2023/09/01 06:32:03;;;;;;;10.75;1.50;;;16.40;99.90;;;;;;5075415;28;20245;-74
2023/09/01 06:34:34;;;;;;;11.75;1.45;;;16.40;99.90;;;;;;5075209;28;20641;-74
2023/09/01 06:37:05;;;;;;;8.80;1.60;;;16.30;99.90;;;;;;5074900;28;20213;-74
2023/09/01 06:39:36;;;;;;;7.07;1.50;;;16.20;99.90;;;;;;5075126;28;20192;-75
2023/09/01 06:42:08;;;;;;;10.52;1.83;;;16.20;99.90;;;;;;5075099;28;20196;-78
2023/09/01 06:44:39;;;;;;;6.22;1.55;;;16.10;99.90;;;;;;5088382;28;20542;-74
2023/09/01 06:47:10;;;;;;;6.78;1.20;;;16.10;99.90;;;;;;5075728;28;20205;-75
2023/09/01 06:49:41;;;;;;;5.65;1.38;;;16.00;99.90;;;;;;5075539;28;20189;-74
2023/09/01 06:52:13;;;;;;;6.35;1.17;;;15.90;99.90;;;;;;5074582;28;20193;-77
2023/09/01 06:54:43;;;;;;;5.63;1.15;;;15.90;99.90;;;;;;5074430;28;20221;-75
2023/09/01 06:57:16;;;;;;;9.63;1.50;;;15.80;99.90;;;;;;5074689;28;20212;-75
2023/09/01 06:59:47;;;;;;;7.97;1.45;;;15.80;99.90;;;;;;5075086;28;20216;-74
2023/09/01 07:02:18;;;;;;;7.13;1.30;;;15.70;99.90;;;;;;5074624;28;20673;-75
2023/09/01 07:04:49;;;;;;;9.30;1.42;;;15.70;99.90;;;;;;5074453;28;20197;-75
2023/09/01 07:07:19;;;;;;;5.97;1.13;;;15.60;99.90;;;;;;5074647;28;20337;-75
2023/09/01 07:09:50;;;;;;;7.65;1.15;;;15.60;99.90;;;;;;5074517;28;20555;-74
2023/09/01 07:12:23;;;;;;;3.90;1.00;;;15.50;99.90;;;;;;5074367;28;20228;-76
2023/09/01 07:14:53;;;;;;;7.50;1.40;;;15.40;99.90;;;;;;5074494;28;20203;-75
2023/09/01 07:17:24;;;;;;;8.93;1.48;;;15.40;99.90;;;;;;5074338;28;20253;-74
2023/09/01 07:19:55;;;;;;;8.93;1.50;;;15.40;99.90;;;;;;5074205;28;20555;-75
2023/09/01 07:22:26;;;;;;;7.55;1.52;;;15.30;99.90;;;;;;5074308;28;20275;-73
2023/09/01 07:24:57;;;;;;;10.38;1.50;;;15.30;99.90;;;;;;5074172;28;20192;-77
2023/09/01 07:27:29;;;;;;;9.60;1.40;;;15.30;99.90;;;;;;5074590;28;20208;-76
2023/09/01 07:30:00;;;;;;;6.72;1.40;;;15.30;99.90;;;;;;5083869;28;20191;-82
2023/09/01 07:32:32;;;;;;;6.00;1.45;;;15.20;99.90;;;;;;5073961;28;20625;-79
2023/09/01 07:35:04;;;;;;;5.47;1.17;;;15.20;99.90;;;;;;5083752;28;20196;-77
2023/09/01 07:37:35;;;;;;;8.98;1.15;;;15.10;99.90;;;;;;5076782;28;20220;-75
2023/09/01 07:40:06;;;;;;;9.90;1.60;;;15.10;99.90;;;;;;5077818;28;20185;-76
2023/09/01 07:42:38;;;;;;;5.95;1.30;;;15.10;99.90;;;;;;5089103;28;20666;-75
2023/09/01 07:45:10;;;;;;;6.82;1.40;;;15.10;99.90;;;;;;5093194;28;20211;-79
2023/09/01 07:47:41;;;;;;;9.57;1.63;;;15.10;99.90;;;;;;5090978;28;20246;-73
2023/09/01 07:50:12;;;;;;;7.60;1.33;;;15.00;99.90;;;;;;5073776;28;20219;-77
2023/09/01 07:52:42;;;;;;;6.35;1.25;;;15.00;99.90;;;;;;5084339;28;20670;-73
2023/09/01 07:55:14;;;;;;;5.97;1.50;;;14.90;99.90;;;;;;5093840;28;20585;-79
2023/09/01 07:57:46;;;;;;;9.35;1.38;;;14.90;99.90;;;;;;5093133;28;20714;-75
2023/09/01 08:00:18;;;;;;;8.57;1.35;;;14.90;99.90;;;;;;5089952;28;20640;-74
2023/09/01 08:02:49;;;;;;;9.23;1.98;;;14.80;99.90;;;;;;5073560;28;20675;-77
2023/09/01 08:05:20;;;;;;;7.20;1.52;;;14.80;99.90;;;;;;5072786;28;20558;-80
2023/09/01 08:07:53;;;;;;;9.98;1.60;;;14.80;99.90;;;;;;5077574;28;20197;-78
2023/09/01 08:10:27;;;;;;;5.07;1.05;;;14.80;99.90;;;;;;5074075;28;20197;-83
2023/09/01 08:12:59;;;;;;;6.85;1.50;;;14.80;99.90;;;;;;5089382;28;20228;-81
2023/09/01 08:15:30;;;;;;;10.20;1.42;;;14.80;99.90;;;;;;5080428;28;20221;-80
2023/09/01 08:18:01;;;;;;;8.85;1.60;;;14.80;99.90;;;;;;5085833;28;20303;-84
2023/09/01 08:20:32;;;;;;;9.40;1.55;;;14.80;99.90;;;;;;5084718;28;20193;-83
2023/09/01 08:23:03;;;;;;;8.98;1.63;;;14.80;99.90;;;;;;5072889;28;20197;-82
2023/09/01 08:25:34;;;;;;;8.98;1.60;;;14.80;99.90;;;;;;5073670;28;20193;-75
2023/09/01 08:28:07;;;;;;;6.65;1.58;;;14.80;99.90;;;;;;5073202;28;20201;-76
2023/09/01 08:30:38;;;;;;;8.93;1.52;;;14.80;99.90;;;;;;5078899;28;20578;-74
2023/09/01 08:33:08;;;;;;;6.45;1.55;;;14.80;99.90;;;;;;5085927;28;20197;-76
2023/09/01 08:35:39;;;;;;;10.10;1.55;;;14.70;99.90;;;;;;5075765;28;20208;-78
2023/09/01 08:38:10;;;;;;;10.85;1.50;;;14.70;99.90;;;;;;5073895;28;20220;-73
2023/09/01 08:40:41;;;;;;;13.18;1.60;;;14.70;99.90;;;;;;5073070;28;20197;-82
2023/09/01 08:43:15;;;;;;;7.05;1.35;;;14.70;99.90;;;;;;5073220;28;20203;-81
2023/09/01 08:45:46;;;;;;;8.48;1.55;;;14.70;99.90;;;;;;5072957;28;20644;-83
2023/09/01 08:48:17;;;;;;;6.88;1.25;;;14.70;99.90;;;;;;5081428;28;20197;-82
2023/09/01 08:50:49;;;;;;;8.27;1.60;;;14.70;99.90;;;;;;5086660;28;20656;-80
2023/09/01 08:53:20;;;;;;;5.95;1.10;;;14.60;99.90;;;;;;5092723;28;20220;-81
2023/09/01 08:55:51;;;;;;;11.68;1.30;;;14.70;99.90;;;;;;5093344;28;20212;-81
2023/09/01 08:58:23;;;;;;;5.32;1.05;;;14.70;99.90;;;;;;5088095;28;20262;-82
2023/09/01 09:00:54;;;;;;;7.90;1.85;;;14.70;99.90;;;;;;5072441;28;20197;-83
2023/09/01 09:03:25;;;;;;;8.98;1.30;;;14.50;99.90;;;;;;5072580;28;20283;-83
2023/09/01 09:05:56;;;;;;;6.50;1.40;;;14.70;99.90;;;;;;5073000;28;20204;-81
2023/09/01 09:08:27;;;;;;;8.52;1.50;;;14.70;99.90;;;;;;5072806;28;20204;-80
2023/09/01 09:10:58;;;;;;;8.10;1.45;;;14.70;99.90;;;;;;5072468;28;20197;-83
2023/09/01 09:13:31;;;;;;;7.68;1.33;;;14.70;99.90;;;;;;5080629;28;20610;-83
2023/09/01 09:16:13;;;;;;;10.18;1.40;;;14.70;99.90;;;;;;5082713;28;20204;-81
2023/09/01 09:18:44;;;;;;;5.75;1.13;;;14.70;99.90;;;;;;5076363;28;20680;-82
2023/09/01 09:21:33;;;;;;;10.63;2.15;;;14.70;99.90;;;;;;5076286;28;20225;-82
2023/09/01 09:24:05;;;;;;;10.18;1.63;;;14.70;99.90;;;;;;5090870;28;20678;-82
2023/09/01 09:26:35;;;;;;;9.48;1.67;;;14.70;99.90;;;;;;5076293;28;20675;-83
2023/09/01 09:29:13;;;;;;;9.15;1.63;;;14.70;99.90;;;;;;5076108;28;20197;-83
2023/09/01 09:31:44;;;;;;;5.68;1.67;;;14.80;99.90;;;;;;5075958;28;20197;-81
2023/09/01 09:34:22;;;;;;;8.13;1.40;;;14.80;99.90;;;;;;5078338;28;20209;-81
2023/09/01 09:36:53;;;;;;;6.85;1.05;;;14.80;99.90;;;;;;5076418;28;20675;-84
2023/09/01 09:39:30;;;;;;;7.38;1.40;;;14.80;99.90;;;;;;5089634;28;20241;-82
2023/09/01 09:42:01;;;;;;;8.80;1.17;;;14.80;99.90;;;;;;5075738;28;20288;-76
2023/09/01 09:44:35;;;;;;;10.13;1.40;;;14.70;99.90;;;;;;5075814;28;20205;-77
2023/09/01 09:47:10;;;;;;;6.65;1.33;;;14.70;99.90;;;;;;5075964;28;20189;-84
2023/09/01 09:49:41;;;;;;;7.35;1.48;;;14.80;99.90;;;;;;5076770;28;20704;-78
2023/09/01 09:52:12;;;;;;;5.85;1.20;;;14.70;99.90;;;;;;5075896;28;20193;-75
2023/09/01 09:54:51;;;;;;;5.88;1.08;;;14.80;99.90;;;;;;5075821;28;20707;-82
2023/09/01 09:57:23;;;;;;;6.63;1.20;;;14.70;99.90;;;;;;5076110;28;20278;-82
2023/09/01 10:00:06;;;;;;;4.65;1.20;;;14.70;99.90;;;;;;5075394;28;20220;-83
2023/09/01 10:02:47;;;;;;;8.65;1.10;;;14.80;99.90;;;;;;5086769;28;20230;-81
2023/09/01 10:05:19;;;;;;;6.00;1.20;;;14.80;99.90;;;;;;5075902;28;20203;-82
2023/09/01 10:07:50;;;;;;;5.25;1.17;;;14.80;99.90;;;;;;5091640;28;20208;-75
2023/09/01 10:10:22;;;;;;;5.93;1.00;;;14.80;99.90;;;;;;5083444;28;20249;-75
2023/09/01 10:12:54;;;;;;;5.25;1.10;;;14.80;99.90;;;;;;5093640;28;20278;-74
2023/09/01 10:15:28;;;;;;;7.32;1.52;;;14.80;99.90;;;;;;5075327;28;20200;-74
2023/09/01 10:18:03;;;;;;;8.05;1.20;;;14.80;99.90;;;;;;5075206;28;20239;-73
2023/09/01 10:20:36;;;;;;;6.50;1.20;;;14.90;99.90;;;;;;5075406;28;20208;-74
2023/09/01 10:23:08;;;;;;;6.72;1.65;;;14.90;99.90;;;;;;5077067;28;20197;-76
2023/09/01 10:25:39;;;;;;;4.43;0.85;;;14.90;99.90;;;;;;5095370;28;20204;-73
2023/09/01 10:28:14;;;;;;;4.80;1.10;;;14.80;99.90;;;;;;5094298;28;20237;-76
2023/09/01 10:30:48;;;;;;;6.43;1.35;;;14.80;99.90;;;;;;5078085;28;20226;-73
2023/09/01 10:33:26;;;;;;;4.85;1.08;;;14.80;99.90;;;;;;5075213;28;20197;-77
2023/09/01 10:35:59;;;;;;;8.88;1.23;;;14.80;99.90;;;;;;5075042;28;20600;-75
2023/09/01 10:38:40;;;;;;;3.60;0.93;;;14.70;99.90;;;;;;5075060;28;20615;-79
2023/09/01 10:41:11;;;;;;;4.35;0.90;;;14.60;99.90;;;;;;5089153;28;20224;-76
2023/09/01 10:43:59;;;;;;;4.65;1.00;;;14.60;99.90;;;;;;5094776;28;20195;-76
2023/09/01 10:46:32;;;;;;;8.88;1.40;;;14.50;99.90;;;;;;5095212;28;20200;-75
2023/09/01 10:49:05;;;;;;;6.25;1.00;;;14.50;99.90;;;;;;5074829;28;20207;-75
2023/09/01 10:51:37;;;;;;;4.40;1.10;;;14.50;99.90;;;;;;5082854;28;20276;-76
2023/09/01 10:54:40;;;;;;;3.90;1.00;;;14.50;99.90;;;;;;5094804;28;20277;-74
2023/09/01 10:57:15;;;;;;;4.85;1.10;;;14.50;99.90;;;;;;5076913;28;20200;-73
2023/09/01 10:59:46;;;;;;;3.90;1.13;;;14.40;99.90;;;;;;5094607;28;20219;-76
2023/09/01 11:02:28;;;;;;;8.98;1.35;;;14.40;99.90;;;;;;5085783;28;20200;-75
2023/09/01 11:04:59;;;;;;;4.85;1.20;;;14.30;99.90;;;;;;5088016;28;20197;-74
2023/09/01 11:07:29;;;;;;;4.03;1.17;;;14.20;99.90;;;;;;5077889;28;20195;-83
2023/09/01 11:10:00;;;;;;;2.35;0.90;;;14.20;99.90;;;;;;5080790;28;20592;-73
2023/09/01 11:12:32;;;;;;;5.25;1.30;;;14.20;99.90;;;;;;5073940;28;20228;-74
2023/09/01 11:15:06;;;;;;;6.78;1.30;;;14.10;99.90;;;;;;5074874;28;20527;-74
2023/09/01 11:17:48;;;;;;;6.70;1.40;;;14.10;99.90;;;;;;5074023;28;20204;-74
2023/09/01 11:20:21;;;;;;;8.50;1.48;;;14.00;99.90;;;;;;5074381;28;20300;-75
2023/09/01 11:22:52;;;;;;;7.32;1.38;;;14.00;99.90;;;;;;5074037;28;20192;-75
2023/09/01 11:25:24;;;;;;;5.30;1.33;;;13.90;99.90;;;;;;5074750;28;20192;-73
2023/09/01 11:27:55;;;;;;;7.97;1.75;;;13.90;99.90;;;;;;5086646;28;20675;-74
2023/09/01 11:30:26;;;;;;;7.45;1.30;;;13.90;99.90;;;;;;5087276;28;20200;-73
2023/09/01 11:33:00;;;;;;;4.53;1.10;;;13.90;99.90;;;;;;5093519;28;20207;-73
2023/09/01 11:35:31;;;;;;;6.95;1.23;;;13.90;99.90;;;;;;5092566;28;20200;-74
2023/09/01 11:38:02;;;;;;;5.55;1.15;;;13.90;99.90;;;;;;5094209;28;20196;-77
2023/09/01 11:40:35;;;;;;;6.88;1.10;;;13.90;99.90;;;;;;5093798;28;20265;-75
2023/09/01 11:43:06;;;;;;;3.97;1.35;;;13.90;99.90;;;;;;5094202;28;20188;-80
2023/09/01 11:45:36;;;;;;;8.65;1.40;;;13.90;99.90;;;;;;5094258;28;20189;-73
2023/09/01 11:48:10;;;;;;;6.60;1.50;;;13.90;99.90;;;;;;5092473;28;20191;-77
2023/09/01 11:50:46;;;;;;;6.45;1.15;;;14.00;99.90;;;;;;5094086;28;20192;-74
2023/09/01 11:53:26;;;;;;;5.38;1.25;;;14.00;99.90;;;;;;5094065;28;20236;-73
2023/09/01 11:55:58;;;;;;;5.28;1.40;;;14.00;99.90;;;;;;5093641;28;20184;-80
2023/09/01 11:58:47;;;;;;;7.95;1.40;;;13.90;99.90;;;;;;5093842;28;20276;-81
2023/09/01 12:01:18;;;;;;;3.85;1.08;;;14.00;99.90;;;;;;5083054;28;20196;-80
2023/09/01 12:03:51;;;;;;;6.85;1.08;;;14.00;99.90;;;;;;5092561;28;20192;-84
2023/09/01 12:06:23;;;;;;;6.22;1.30;;;14.00;99.90;;;;;;5086314;28;20200;-83
2023/09/01 12:08:57;;;;;;;6.18;1.38;;;14.00;99.90;;;;;;5073612;28;20193;-83
2023/09/01 12:11:28;;;;;;;6.00;1.30;;;14.00;99.90;;;;;;5078826;28;20217;-85
2023/09/01 12:13:58;;;;;;;7.78;1.50;;;14.00;99.90;;;;;;5079080;28;20189;-79
2023/09/01 12:16:30;;;;;;;4.63;1.02;;;14.00;99.90;;;;;;5075061;28;20195;-83
2023/09/01 12:19:07;;;;;;;7.43;1.13;;;14.00;99.90;;;;;;5089868;28;20208;-83
2023/09/01 12:21:37;;;;;;;3.78;0.80;;;14.00;99.90;;;;;;5087977;28;20198;-82
2023/09/01 12:24:09;;;;;;;5.38;0.88;;;14.00;99.90;;;;;;5092318;28;20204;-80
2023/09/01 12:26:40;;;;;;;5.05;1.00;;;14.00;99.90;;;;;;5093258;28;20195;-80
2023/09/01 12:29:11;;;;;;;5.30;1.10;;;14.00;99.90;;;;;;5079063;28;20234;-83
2023/09/01 12:31:42;;;;;;;3.55;0.98;;;14.00;99.90;;;;;;5081361;28;20204;-81
2023/09/01 12:34:14;;;;;;;3.40;0.68;;;14.00;99.90;;;;;;5073254;28;20216;-80
2023/09/01 12:36:45;;;;;;;6.93;1.20;;;13.90;99.90;;;;;;5074136;28;20207;-83
2023/09/01 12:39:16;;;;;;;3.47;0.73;;;13.90;99.90;;;;;;5076997;28;20219;-83
2023/09/01 12:41:46;;;;;;;3.92;0.68;;;13.90;99.90;;;;;;5092315;28;20191;-84
2023/09/01 12:44:22;;;;;;;3.42;0.90;;;13.80;99.90;;;;;;5093366;28;20188;-81
2023/09/01 12:46:57;;;;;;;3.63;0.80;;;13.80;99.90;;;;;;5093387;28;20192;-83
2023/09/01 12:49:30;;;;;;;4.80;1.08;;;13.70;99.90;;;;;;5093314;28;20640;-83
2023/09/01 12:52:01;;;;;;;5.22;0.88;;;13.80;99.90;;;;;;5095308;28;20245;-84
2023/09/01 12:54:31;;;;;;;5.03;1.05;;;13.70;99.90;;;;;;5080271;28;20193;-81
2023/09/01 12:57:02;;;;;;;5.10;1.15;;;13.70;99.90;;;;;;5080838;28;20199;-80
2023/09/01 12:59:33;;;;;;;7.30;0.90;;;13.70;99.90;;;;;;5087199;28;20216;-78
2023/09/01 13:02:04;;;;;;;5.20;1.30;;;13.70;99.90;;;;;;5087593;28;20181;-83
2023/09/01 13:04:39;;;;;;;5.18;1.17;;;13.70;99.90;;;;;;5079139;28;20200;-84
2023/09/01 13:07:10;;;;;;;3.92;0.90;;;13.60;99.90;;;;;;5088442;28;20705;-77
2023/09/01 13:09:41;;;;;;;3.47;0.75;;;13.60;99.90;;;;;;5093239;28;20195;-82
2023/09/01 13:12:12;;;;;;;2.35;0.68;;;13.60;99.90;;;;;;5077288;28;20592;-77